createdAt,value
2023-04-12T00:00:59.000Z,92.61
2023-04-12T00:02:03.000Z,92.66
2023-04-12T00:03:07.000Z,92.3
2023-04-12T00:04:11.000Z,92.35
2023-04-12T00:05:15.000Z,92.35
2023-04-12T00:06:20.000Z,92.35
2023-04-12T00:07:24.000Z,92.35
2023-04-12T00:08:28.000Z,92.45
2023-04-12T00:09:32.000Z,92.7
2023-04-12T00:10:36.000Z,92.8
2023-04-12T00:11:40.000Z,93.12
2023-04-12T00:12:44.000Z,93.33
2023-04-12T00:13:48.000Z,93.64
2023-04-12T00:14:52.000Z,93.85
2023-04-12T00:15:56.000Z,94.06
2023-04-12T00:17:00.000Z,94.26
2023-04-12T00:18:04.000Z,94.37
2023-04-12T00:19:08.000Z,94.47
2023-04-12T00:20:12.000Z,94.68
2023-04-12T00:21:16.000Z,94.89
2023-04-12T00:22:20.000Z,95.09
2023-04-12T00:23:24.000Z,95.51
2023-04-12T00:24:28.000Z,95.83
2023-04-12T00:25:32.000Z,95.89
2023-04-12T00:26:36.000Z,95.78
2023-04-12T00:27:40.000Z,95.67
2023-04-12T00:28:44.000Z,95.67
2023-04-12T00:29:47.000Z,95.57
2023-04-12T00:30:51.000Z,95.26
2023-04-12T00:31:55.000Z,94.95
2023-04-12T00:32:59.000Z,94.74
2023-04-12T00:34:03.000Z,94.53
2023-04-12T00:35:07.000Z,94.22
2023-04-12T00:36:12.000Z,94.01
2023-04-12T00:37:15.000Z,93.91
2023-04-12T00:38:19.000Z,93.7
2023-04-12T00:39:23.000Z,93.7
2023-04-12T00:40:27.000Z,93.8
2023-04-12T00:41:31.000Z,93.8
2023-04-12T00:42:36.000Z,93.74
2023-04-12T00:43:40.000Z,93.64
2023-04-12T00:44:44.000Z,93.54
2023-04-12T00:45:48.000Z,93.54
2023-04-12T00:46:52.000Z,93.54
2023-04-12T00:47:56.000Z,93.54
2023-04-12T00:49:00.000Z,93.68
2023-04-12T00:50:04.000Z,93.79
2023-04-12T00:51:08.000Z,93.68
2023-04-12T00:52:12.000Z,93.58
2023-04-12T00:53:16.000Z,93.58
2023-04-12T00:54:20.000Z,93.48
2023-04-12T00:55:24.000Z,93.41
2023-04-12T00:56:28.000Z,93.52
2023-04-12T00:57:32.000Z,93.62
2023-04-12T00:58:36.000Z,93.73
2023-04-12T00:59:40.000Z,93.83
2023-04-12T01:00:44.000Z,93.93
2023-04-12T01:01:48.000Z,93.83
2023-04-12T01:02:52.000Z,93.83
2023-04-12T01:03:56.000Z,93.73
2023-04-12T01:04:59.000Z,93.83
2023-04-12T01:06:09.000Z,94.24
2023-04-12T01:07:13.000Z,94.45
2023-04-12T01:08:16.000Z,94.56
2023-04-12T01:09:20.000Z,94.56
2023-04-12T01:10:24.000Z,94.56
2023-04-12T01:11:28.000Z,94.56
2023-04-12T01:12:33.000Z,94.56
2023-04-12T01:13:37.000Z,94.56
2023-04-12T01:14:41.000Z,94.66
2023-04-12T01:15:45.000Z,94.66
2023-04-12T01:16:49.000Z,94.66
2023-04-12T01:17:53.000Z,94.87
2023-04-12T01:18:57.000Z,95.02
2023-04-12T01:20:01.000Z,95.12
2023-04-12T01:21:05.000Z,95.23
2023-04-12T01:22:09.000Z,95.43
2023-04-12T01:23:13.000Z,95.6
2023-04-12T01:24:17.000Z,95.75
2023-04-12T01:25:21.000Z,95.81
2023-04-12T01:26:25.000Z,95.81
2023-04-12T01:27:29.000Z,95.81
2023-04-12T01:28:33.000Z,95.7
2023-04-12T01:29:37.000Z,95.7
2023-04-12T01:30:41.000Z,95.5
2023-04-12T01:31:45.000Z,95.39
2023-04-12T01:32:49.000Z,95.39
2023-04-12T01:33:53.000Z,95.39
2023-04-12T01:34:57.000Z,95.29
2023-04-12T01:36:01.000Z,95.18
2023-04-12T01:37:05.000Z,94.98
2023-04-12T01:38:09.000Z,94.76
2023-04-12T01:39:13.000Z,94.45
2023-04-12T01:40:17.000Z,94.35
2023-04-12T01:41:21.000Z,94.35
2023-04-12T01:42:25.000Z,94.45
2023-04-12T01:43:29.000Z,94.49
2023-04-12T01:44:33.000Z,94.6
2023-04-12T01:45:37.000Z,94.6
2023-04-12T01:46:41.000Z,94.7
2023-04-12T01:47:45.000Z,94.98
2023-04-12T01:48:49.000Z,94.87
2023-04-12T01:49:53.000Z,94.81
2023-04-12T01:50:57.000Z,94.98
2023-04-12T01:52:06.000Z,95.08
2023-04-12T01:53:10.000Z,94.98
2023-04-12T01:54:14.000Z,94.98
2023-04-12T01:55:18.000Z,94.98
2023-04-12T01:56:22.000Z,94.87
2023-04-12T01:57:26.000Z,94.76
2023-04-12T01:58:30.000Z,94.76
2023-04-12T01:59:34.000Z,94.66
2023-04-12T02:00:38.000Z,94.56
2023-04-12T02:01:42.000Z,94.56
2023-04-12T02:02:46.000Z,94.66
2023-04-12T02:03:50.000Z,94.66
2023-04-12T02:04:54.000Z,94.56
2023-04-12T02:05:58.000Z,94.56
2023-04-12T02:07:02.000Z,94.76
2023-04-12T02:08:06.000Z,94.76
2023-04-12T02:09:10.000Z,94.76
2023-04-12T02:10:14.000Z,94.76
2023-04-12T02:11:18.000Z,94.87
2023-04-12T02:12:22.000Z,94.92
2023-04-12T02:13:26.000Z,94.92
2023-04-12T02:14:30.000Z,94.81
2023-04-12T02:15:34.000Z,94.81
2023-04-12T02:16:38.000Z,95.02
2023-04-12T02:17:42.000Z,95.33
2023-04-12T02:18:46.000Z,95.43
2023-04-12T02:19:50.000Z,95.43
2023-04-12T02:20:54.000Z,95.43
2023-04-12T02:21:58.000Z,95.23
2023-04-12T02:23:02.000Z,95.12
2023-04-12T02:24:06.000Z,95.12
2023-04-12T02:25:10.000Z,95.23
2023-04-12T02:26:14.000Z,95.33
2023-04-12T02:27:18.000Z,95.33
2023-04-12T02:28:22.000Z,95.23
2023-04-12T02:29:26.000Z,95.12
2023-04-12T02:30:30.000Z,95.02
2023-04-12T02:31:34.000Z,94.92
2023-04-12T02:32:38.000Z,94.92
2023-04-12T02:33:42.000Z,95.02
2023-04-12T02:34:46.000Z,95.12
2023-04-12T02:35:50.000Z,95.12
2023-04-12T02:36:54.000Z,95.02
2023-04-12T02:37:58.000Z,94.92
2023-04-12T02:39:02.000Z,94.92
2023-04-12T02:40:06.000Z,94.81
2023-04-12T02:41:10.000Z,94.81
2023-04-12T02:42:14.000Z,94.81
2023-04-12T02:43:18.000Z,94.92
2023-04-12T02:44:22.000Z,94.81
2023-04-12T02:45:26.000Z,94.6
2023-04-12T02:46:29.000Z,94.6
2023-04-12T02:47:33.000Z,94.49
2023-04-12T02:48:37.000Z,94.39
2023-04-12T02:49:41.000Z,94.29
2023-04-12T02:50:45.000Z,94.18
2023-04-12T02:51:49.000Z,93.87
2023-04-12T02:52:53.000Z,93.66
2023-04-12T02:53:57.000Z,93.56
2023-04-12T02:55:01.000Z,93.46
2023-04-12T02:56:05.000Z,93.35
2023-04-12T02:57:09.000Z,93.35
2023-04-12T02:58:13.000Z,93.66
2023-04-12T02:59:17.000Z,93.77
2023-04-12T03:00:21.000Z,93.66
2023-04-12T03:01:25.000Z,93.46
2023-04-12T03:02:30.000Z,93.66
2023-04-12T03:03:34.000Z,93.66
2023-04-12T03:04:38.000Z,93.46
2023-04-12T03:05:42.000Z,93.6
2023-04-12T03:06:46.000Z,93.71
2023-04-12T03:07:50.000Z,93.6
2023-04-12T03:08:54.000Z,93.6
2023-04-12T03:09:58.000Z,93.5
2023-04-12T03:11:02.000Z,93.81
2023-04-12T03:12:06.000Z,94.02
2023-04-12T03:13:10.000Z,94.02
2023-04-12T03:14:14.000Z,94.02
2023-04-12T03:15:18.000Z,94.02
2023-04-12T03:16:22.000Z,94.02
2023-04-12T03:17:26.000Z,94.12
2023-04-12T03:18:30.000Z,94.12
2023-04-12T03:19:34.000Z,94.12
2023-04-12T03:20:38.000Z,94.02
2023-04-12T03:21:42.000Z,93.91
2023-04-12T03:22:46.000Z,93.81
2023-04-12T03:23:50.000Z,93.81
2023-04-12T03:24:54.000Z,93.6
2023-04-12T03:25:58.000Z,93.5
2023-04-12T03:27:02.000Z,93.5
2023-04-12T03:28:06.000Z,93.91
2023-04-12T03:29:10.000Z,94.02
2023-04-12T03:30:14.000Z,94.12
2023-04-12T03:31:18.000Z,94.02
2023-04-12T03:32:27.000Z,94.12
2023-04-12T03:33:31.000Z,94.12
2023-04-12T03:34:35.000Z,94.27
2023-04-12T03:35:39.000Z,94.27
2023-04-12T03:36:43.000Z,94.27
2023-04-12T03:37:47.000Z,94.37
2023-04-12T03:38:51.000Z,94.37
2023-04-12T03:39:55.000Z,94.48
2023-04-12T03:40:59.000Z,94.58
2023-04-12T03:42:03.000Z,94.69
2023-04-12T03:43:07.000Z,94.79
2023-04-12T03:44:11.000Z,94.79
2023-04-12T03:45:15.000Z,94.9
2023-04-12T03:46:19.000Z,95.0
2023-04-12T03:47:23.000Z,95.1
2023-04-12T03:48:27.000Z,95.21
2023-04-12T03:49:31.000Z,95.42
2023-04-12T03:50:40.000Z,95.62
2023-04-12T03:51:44.000Z,95.62
2023-04-12T03:52:48.000Z,95.52
2023-04-12T03:53:52.000Z,95.42
2023-04-12T03:54:56.000Z,95.17
2023-04-12T03:56:00.000Z,95.17
2023-04-12T03:57:04.000Z,95.06
2023-04-12T03:58:08.000Z,94.75
2023-04-12T03:59:12.000Z,94.33
2023-04-12T04:00:16.000Z,94.12
2023-04-12T04:01:20.000Z,94.33
2023-04-12T04:02:24.000Z,94.85
2023-04-12T04:03:28.000Z,94.75
2023-04-12T04:04:32.000Z,94.39
2023-04-12T04:05:36.000Z,94.18
2023-04-12T04:06:40.000Z,93.81
2023-04-12T04:07:44.000Z,93.66
2023-04-12T04:08:48.000Z,93.87
2023-04-12T04:09:52.000Z,93.87
2023-04-12T04:10:56.000Z,93.87
2023-04-12T04:12:00.000Z,93.87
2023-04-12T04:13:03.000Z,93.66
2023-04-12T04:14:07.000Z,93.77
2023-04-12T04:15:11.000Z,93.66
2023-04-12T04:16:15.000Z,93.31
2023-04-12T04:17:19.000Z,92.99
2023-04-12T04:18:23.000Z,92.79
2023-04-12T04:19:27.000Z,92.68
2023-04-12T04:20:31.000Z,92.58
2023-04-12T04:21:35.000Z,92.47
2023-04-12T04:22:39.000Z,92.64
2023-04-12T04:23:43.000Z,94.51
2023-04-12T04:24:47.000Z,94.51
2023-04-12T04:25:52.000Z,94.2
2023-04-12T04:26:56.000Z,93.79
2023-04-12T04:28:00.000Z,93.43
2023-04-12T04:29:04.000Z,93.12
2023-04-12T04:30:08.000Z,92.7
2023-04-12T04:31:12.000Z,92.29
2023-04-12T04:32:16.000Z,92.39
2023-04-12T04:33:20.000Z,92.24
2023-04-12T04:34:24.000Z,92.35
2023-04-12T04:35:28.000Z,92.45
2023-04-12T04:36:32.000Z,92.35
2023-04-12T04:37:35.000Z,91.89
2023-04-12T04:38:39.000Z,91.68
2023-04-12T04:39:43.000Z,91.99
2023-04-12T04:40:47.000Z,91.99
2023-04-12T04:41:51.000Z,91.68
2023-04-12T04:42:55.000Z,91.53
2023-04-12T04:43:59.000Z,91.33
2023-04-12T04:45:03.000Z,91.22
2023-04-12T04:46:07.000Z,90.91
2023-04-12T04:47:11.000Z,90.81
2023-04-12T04:48:15.000Z,90.91
2023-04-12T04:49:19.000Z,90.87
2023-04-12T04:50:23.000Z,90.56
2023-04-12T04:51:27.000Z,90.25
2023-04-12T04:52:31.000Z,90.1
2023-04-12T04:53:35.000Z,90.1
2023-04-12T04:54:39.000Z,90.0
2023-04-12T04:55:43.000Z,89.86
2023-04-12T04:56:47.000Z,89.65
2023-04-12T04:57:51.000Z,89.65
2023-04-12T04:58:55.000Z,89.44
2023-04-12T04:59:59.000Z,89.29
2023-04-12T05:01:03.000Z,89.29
2023-04-12T05:02:07.000Z,89.09
2023-04-12T05:03:11.000Z,88.88
2023-04-12T05:04:15.000Z,88.78
2023-04-12T05:05:19.000Z,88.78
2023-04-12T05:06:23.000Z,89.04
2023-04-12T05:07:27.000Z,88.73
2023-04-12T05:08:31.000Z,88.88
2023-04-12T05:09:35.000Z,88.84
2023-04-12T05:10:39.000Z,88.42
2023-04-12T05:11:43.000Z,88.42
2023-04-12T05:12:47.000Z,88.53
2023-04-12T05:13:51.000Z,88.01
2023-04-12T05:14:54.000Z,87.9
2023-04-12T05:15:59.000Z,88.28
2023-04-12T05:17:03.000Z,88.07
2023-04-12T05:18:06.000Z,87.97
2023-04-12T05:19:10.000Z,87.97
2023-04-12T05:20:14.000Z,87.45
2023-04-12T05:21:18.000Z,87.41
2023-04-12T05:22:22.000Z,87.04
2023-04-12T05:23:27.000Z,87.14
2023-04-12T05:24:31.000Z,86.72
2023-04-12T05:25:35.000Z,87.04
2023-04-12T05:26:39.000Z,86.37
2023-04-12T05:27:43.000Z,86.79
2023-04-12T05:28:47.000Z,87.41
2023-04-12T05:29:51.000Z,87.3
2023-04-12T05:30:55.000Z,87.3
2023-04-12T05:31:59.000Z,87.27
2023-04-12T05:33:03.000Z,86.96
2023-04-12T05:34:07.000Z,86.85
2023-04-12T05:35:11.000Z,87.06
2023-04-12T05:36:15.000Z,86.81
2023-04-12T05:37:19.000Z,86.6
2023-04-12T05:38:23.000Z,86.6
2023-04-12T05:39:27.000Z,86.6
2023-04-12T05:40:31.000Z,86.15
2023-04-12T05:41:35.000Z,85.74
2023-04-12T05:42:39.000Z,85.63
2023-04-12T05:43:43.000Z,85.42
2023-04-12T05:44:47.000Z,85.08
2023-04-12T05:45:51.000Z,84.87
2023-04-12T05:46:55.000Z,85.18
2023-04-12T05:47:59.000Z,85.04
2023-04-12T05:49:03.000Z,84.45
2023-04-12T05:50:07.000Z,84.21
2023-04-12T05:51:11.000Z,84.42
2023-04-12T05:52:14.000Z,84.25
2023-04-12T05:53:18.000Z,84.56
2023-04-12T05:54:23.000Z,85.49
2023-04-12T05:55:27.000Z,85.6
2023-04-12T05:56:30.000Z,85.6
2023-04-12T05:57:34.000Z,85.49
2023-04-12T05:58:38.000Z,85.28
2023-04-12T05:59:42.000Z,85.08
2023-04-12T06:00:52.000Z,85.08
2023-04-12T06:01:56.000Z,85.08
2023-04-12T06:03:00.000Z,85.35
2023-04-12T06:04:04.000Z,85.14
2023-04-12T06:05:08.000Z,85.55
2023-04-12T06:06:11.000Z,85.1
2023-04-12T06:07:16.000Z,84.69
2023-04-12T06:08:20.000Z,85.52
2023-04-12T06:09:24.000Z,84.48
2023-04-12T06:10:28.000Z,84.28
2023-04-12T06:11:32.000Z,84.79
2023-04-12T06:12:36.000Z,84.94
2023-04-12T06:13:40.000Z,84.48
2023-04-12T06:14:44.000Z,85.0
2023-04-12T06:15:48.000Z,84.86
2023-04-12T06:16:52.000Z,84.86
2023-04-12T06:17:55.000Z,84.03
2023-04-12T06:19:00.000Z,83.68
2023-04-12T06:20:04.000Z,84.2
2023-04-12T06:21:07.000Z,83.99
2023-04-12T06:22:12.000Z,83.58
2023-04-12T06:23:15.000Z,83.64
2023-04-12T06:24:19.000Z,83.85
2023-04-12T06:25:23.000Z,83.64
2023-04-12T06:26:27.000Z,82.71
2023-04-12T06:27:31.000Z,83.23
2023-04-12T06:28:35.000Z,83.03
2023-04-12T06:29:39.000Z,83.64
2023-04-12T06:30:43.000Z,83.33
2023-04-12T06:31:47.000Z,83.33
2023-04-12T06:32:51.000Z,83.54
2023-04-12T06:33:55.000Z,82.51
2023-04-12T06:34:59.000Z,83.44
2023-04-12T06:36:03.000Z,83.75
2023-04-12T06:37:07.000Z,83.75
2023-04-12T06:38:11.000Z,82.98
2023-04-12T06:39:15.000Z,82.89
2023-04-12T06:40:19.000Z,83.09
2023-04-12T06:41:23.000Z,82.78
2023-04-12T06:42:27.000Z,82.12
2023-04-12T06:43:31.000Z,82.33
2023-04-12T06:44:35.000Z,83.05
2023-04-12T06:45:39.000Z,83.56
2023-04-12T06:46:43.000Z,84.19
2023-04-12T06:47:47.000Z,83.63
2023-04-12T06:48:51.000Z,83.73
2023-04-12T06:49:55.000Z,83.42
2023-04-12T06:50:59.000Z,83.53
2023-04-12T06:52:02.000Z,81.88
2023-04-12T06:53:06.000Z,81.77
2023-04-12T06:54:10.000Z,81.98
2023-04-12T06:55:14.000Z,81.77
2023-04-12T06:56:18.000Z,81.57
2023-04-12T06:57:22.000Z,80.85
2023-04-12T06:58:26.000Z,81.67
2023-04-12T06:59:31.000Z,82.25
2023-04-12T07:00:34.000Z,82.35
2023-04-12T07:01:38.000Z,81.95
2023-04-12T07:02:43.000Z,81.43
2023-04-12T07:03:47.000Z,81.43
2023-04-12T07:04:56.000Z,81.23
2023-04-12T07:06:00.000Z,79.54
2023-04-12T07:07:04.000Z,79.85
2023-04-12T07:08:08.000Z,79.85
2023-04-12T07:09:12.000Z,80.88
2023-04-12T07:10:15.000Z,80.53
2023-04-12T07:11:19.000Z,80.02
2023-04-12T07:12:23.000Z,78.68
2023-04-12T07:13:27.000Z,78.99
2023-04-12T07:14:31.000Z,78.85
2023-04-12T07:15:35.000Z,79.05
2023-04-12T07:16:39.000Z,79.57
2023-04-12T07:17:43.000Z,78.96
2023-04-12T07:18:47.000Z,78.13
2023-04-12T07:19:51.000Z,78.71
2023-04-12T07:20:55.000Z,78.5
2023-04-12T07:21:59.000Z,78.09
2023-04-12T07:23:03.000Z,77.99
2023-04-12T07:24:07.000Z,78.09
2023-04-12T07:25:11.000Z,78.3
2023-04-12T07:26:15.000Z,78.3
2023-04-12T07:27:19.000Z,78.81
2023-04-12T07:28:23.000Z,78.98
2023-04-12T07:29:27.000Z,78.16
2023-04-12T07:30:31.000Z,79.05
2023-04-12T07:31:35.000Z,79.15
2023-04-12T07:32:39.000Z,79.05
2023-04-12T07:33:43.000Z,77.88
2023-04-12T07:34:47.000Z,76.96
2023-04-12T07:35:51.000Z,76.82
2023-04-12T07:36:56.000Z,76.0
2023-04-12T07:38:00.000Z,76.92
2023-04-12T07:39:04.000Z,76.92
2023-04-12T07:40:08.000Z,76.1
2023-04-12T07:41:12.000Z,76.2
2023-04-12T07:42:16.000Z,75.9
2023-04-12T07:43:20.000Z,75.38
2023-04-12T07:44:24.000Z,75.96
2023-04-12T07:45:28.000Z,76.78
2023-04-12T07:46:32.000Z,76.17
2023-04-12T07:47:36.000Z,75.31
2023-04-12T07:48:40.000Z,75.52
2023-04-12T07:49:44.000Z,75.59
2023-04-12T07:50:48.000Z,75.69
2023-04-12T07:51:52.000Z,75.65
2023-04-12T07:52:56.000Z,75.04
2023-04-12T07:54:00.000Z,74.94
2023-04-12T07:55:04.000Z,73.16
2023-04-12T07:56:08.000Z,73.68
2023-04-12T07:57:12.000Z,72.34
2023-04-12T07:58:16.000Z,72.34
2023-04-12T07:59:20.000Z,73.33
2023-04-12T08:00:24.000Z,73.33
2023-04-12T08:01:28.000Z,72.99
2023-04-12T08:02:33.000Z,70.84
2023-04-12T08:03:37.000Z,71.46
2023-04-12T08:04:45.000Z,70.92
2023-04-12T08:05:49.000Z,70.4
2023-04-12T08:06:53.000Z,71.29
2023-04-12T08:07:57.000Z,69.96
2023-04-12T08:09:01.000Z,69.52
2023-04-12T08:10:05.000Z,68.7
2023-04-12T08:11:09.000Z,68.98
2023-04-12T08:12:13.000Z,69.96
2023-04-12T08:13:17.000Z,67.72
2023-04-12T08:14:21.000Z,67.79
2023-04-12T08:15:25.000Z,68.1
2023-04-12T08:16:29.000Z,66.94
2023-04-12T08:17:33.000Z,67.63
2023-04-12T08:18:37.000Z,65.97
2023-04-12T08:19:41.000Z,64.84
2023-04-12T08:20:45.000Z,65.53
2023-04-12T08:21:49.000Z,62.88
2023-04-12T08:22:53.000Z,63.57
2023-04-12T08:23:57.000Z,63.33
2023-04-12T08:25:01.000Z,62.32
2023-04-12T08:26:05.000Z,62.18
2023-04-12T08:27:09.000Z,60.86
2023-04-12T08:28:13.000Z,61.07
2023-04-12T08:29:17.000Z,62.08
2023-04-12T08:30:21.000Z,61.47
2023-04-12T08:31:25.000Z,61.75
2023-04-12T08:32:29.000Z,61.24
2023-04-12T08:33:33.000Z,58.91
2023-04-12T08:34:37.000Z,59.82
2023-04-12T08:35:41.000Z,60.74
2023-04-12T08:36:45.000Z,60.33
2023-04-12T08:37:49.000Z,59.28
2023-04-12T08:38:53.000Z,59.08
2023-04-12T08:39:57.000Z,59.18
2023-04-12T08:41:01.000Z,58.34
2023-04-12T08:42:05.000Z,58.34
2023-04-12T08:43:09.000Z,58.42
2023-04-12T08:44:13.000Z,58.14
2023-04-12T08:45:17.000Z,57.56
2023-04-12T08:46:21.000Z,57.93
2023-04-12T08:47:25.000Z,58.34
2023-04-12T08:48:29.000Z,57.97
2023-04-12T08:49:33.000Z,59.08
2023-04-12T08:50:37.000Z,59.69
2023-04-12T08:51:41.000Z,58.29
2023-04-12T08:52:44.000Z,59.39
2023-04-12T08:53:48.000Z,58.17
2023-04-12T08:54:52.000Z,59.28
2023-04-12T08:55:56.000Z,57.97
2023-04-12T08:57:00.000Z,59.28
2023-04-12T08:58:04.000Z,59.59
2023-04-12T08:59:08.000Z,60.2
2023-04-12T09:00:12.000Z,59.46
2023-04-12T09:01:16.000Z,58.85
2023-04-12T09:02:20.000Z,58.04
2023-04-12T09:03:24.000Z,59.53
2023-04-12T09:04:28.000Z,59.03
2023-04-12T09:05:32.000Z,58.49
2023-04-12T09:06:36.000Z,59.0
2023-04-12T09:07:40.000Z,56.57
2023-04-12T09:08:44.000Z,57.15
2023-04-12T09:09:48.000Z,56.95
2023-04-12T09:10:52.000Z,55.22
2023-04-12T09:11:56.000Z,55.12
2023-04-12T09:13:05.000Z,54.11
2023-04-12T09:14:09.000Z,54.18
2023-04-12T09:15:13.000Z,56.13
2023-04-12T09:16:17.000Z,55.43
2023-04-12T09:17:21.000Z,56.77
2023-04-12T09:18:25.000Z,56.99
2023-04-12T09:19:29.000Z,56.82
2023-04-12T09:20:33.000Z,57.5
2023-04-12T09:21:37.000Z,57.1
2023-04-12T09:22:41.000Z,56.74
2023-04-12T09:23:45.000Z,55.83
2023-04-12T09:24:49.000Z,58.03
2023-04-12T09:25:54.000Z,55.7
2023-04-12T09:26:57.000Z,56.01
2023-04-12T09:28:01.000Z,55.19
2023-04-12T09:29:05.000Z,54.51
2023-04-12T09:30:10.000Z,56.23
2023-04-12T09:31:14.000Z,55.32
2023-04-12T09:32:18.000Z,55.02
2023-04-12T09:33:22.000Z,55.3
2023-04-12T09:34:26.000Z,55.17
2023-04-12T09:35:29.000Z,54.23
2023-04-12T09:36:33.000Z,55.15
2023-04-12T09:37:37.000Z,54.66
2023-04-12T09:38:41.000Z,54.84
2023-04-12T09:39:45.000Z,53.85
2023-04-12T09:40:49.000Z,54.03
2023-04-12T09:41:53.000Z,54.13
2023-04-12T09:42:57.000Z,53.93
2023-04-12T09:44:01.000Z,54.21
2023-04-12T09:45:05.000Z,52.99
2023-04-12T09:46:09.000Z,53.7
2023-04-12T09:47:13.000Z,54.21
2023-04-12T09:48:17.000Z,53.47
2023-04-12T09:49:21.000Z,54.18
2023-04-12T09:50:25.000Z,53.58
2023-04-12T09:51:29.000Z,53.3
2023-04-12T09:52:33.000Z,53.6
2023-04-12T09:53:37.000Z,54.71
2023-04-12T09:54:41.000Z,55.4
2023-04-12T09:55:45.000Z,52.76
2023-04-12T09:56:49.000Z,52.56
2023-04-12T09:57:53.000Z,52.76
2023-04-12T09:58:57.000Z,52.72
2023-04-12T10:00:01.000Z,54.94
2023-04-12T10:01:05.000Z,54.13
2023-04-12T10:02:09.000Z,54.33
2023-04-12T10:03:13.000Z,54.71
2023-04-12T10:04:17.000Z,54.21
2023-04-12T10:05:21.000Z,54.89
2023-04-12T10:06:25.000Z,53.25
2023-04-12T10:07:29.000Z,53.34
2023-04-12T10:08:33.000Z,53.55
2023-04-12T10:09:37.000Z,53.27
2023-04-12T10:10:41.000Z,53.9
2023-04-12T10:11:45.000Z,52.72
2023-04-12T10:12:49.000Z,53.93
2023-04-12T10:13:53.000Z,53.93
2023-04-12T10:14:57.000Z,54.74
2023-04-12T10:16:01.000Z,54.21
2023-04-12T10:17:05.000Z,54.82
2023-04-12T10:18:09.000Z,54.28
2023-04-12T10:19:13.000Z,54.21
2023-04-12T10:20:17.000Z,54.31
2023-04-12T10:21:21.000Z,53.17
2023-04-12T10:22:25.000Z,54.28
2023-04-12T10:23:29.000Z,53.58
2023-04-12T10:24:33.000Z,53.98
2023-04-12T10:25:37.000Z,54.31
2023-04-12T10:26:41.000Z,55.65
2023-04-12T10:27:45.000Z,55.57
2023-04-12T10:28:49.000Z,55.07
2023-04-12T10:29:53.000Z,55.55
2023-04-12T10:30:57.000Z,53.32
2023-04-12T10:32:01.000Z,54.23
2023-04-12T10:33:05.000Z,54.91
2023-04-12T10:34:09.000Z,55.02
2023-04-12T10:35:13.000Z,55.6
2023-04-12T10:36:17.000Z,55.4
2023-04-12T10:37:21.000Z,54.36
2023-04-12T10:38:25.000Z,54.76
2023-04-12T10:39:29.000Z,53.8
2023-04-12T10:40:33.000Z,54.28
2023-04-12T10:41:38.000Z,54.08
2023-04-12T10:42:42.000Z,54.61
2023-04-12T10:43:51.000Z,54.23
2023-04-12T10:44:55.000Z,54.91
2023-04-12T10:45:59.000Z,53.78
2023-04-12T10:47:03.000Z,55.57
2023-04-12T10:48:07.000Z,53.05
2023-04-12T10:49:11.000Z,53.93
2023-04-12T10:50:15.000Z,54.05
2023-04-12T10:51:19.000Z,52.94
2023-04-12T10:52:23.000Z,55.67
2023-04-12T10:53:27.000Z,53.45
2023-04-12T10:54:31.000Z,52.34
2023-04-12T10:55:35.000Z,53.14
2023-04-12T10:56:39.000Z,53.75
2023-04-12T10:57:43.000Z,52.64
2023-04-12T10:58:47.000Z,52.76
2023-04-12T10:59:51.000Z,51.28
2023-04-12T11:00:55.000Z,52.19
2023-04-12T11:01:58.000Z,53.4
2023-04-12T11:03:02.000Z,54.71
2023-04-12T11:04:06.000Z,53.19
2023-04-12T11:05:10.000Z,51.68
2023-04-12T11:06:15.000Z,52.99
2023-04-12T11:07:19.000Z,53.5
2023-04-12T11:08:23.000Z,53.09
2023-04-12T11:09:27.000Z,53.32
2023-04-12T11:10:31.000Z,52.69
2023-04-12T11:11:35.000Z,53.9
2023-04-12T11:12:39.000Z,54.08
2023-04-12T11:13:43.000Z,53.88
2023-04-12T11:14:47.000Z,54.58
2023-04-12T11:15:51.000Z,54.38
2023-04-12T11:16:55.000Z,52.97
2023-04-12T11:17:59.000Z,52.89
2023-04-12T11:19:03.000Z,51.81
2023-04-12T11:20:07.000Z,52.99
2023-04-12T11:21:11.000Z,54.66
2023-04-12T11:22:15.000Z,52.44
2023-04-12T11:23:19.000Z,54.05
2023-04-12T11:24:23.000Z,53.75
2023-04-12T11:25:27.000Z,54.94
2023-04-12T11:26:31.000Z,53.45
2023-04-12T11:27:35.000Z,54.59
2023-04-12T11:28:39.000Z,55.07
2023-04-12T11:29:43.000Z,54.53
2023-04-12T11:30:47.000Z,54.44
2023-04-12T11:31:51.000Z,53.93
2023-04-12T11:32:55.000Z,52.92
2023-04-12T11:33:59.000Z,53.72
2023-04-12T11:35:03.000Z,53.83
2023-04-12T11:36:07.000Z,53.12
2023-04-12T11:37:11.000Z,52.79
2023-04-12T11:38:15.000Z,53.4
2023-04-12T11:39:19.000Z,52.67
2023-04-12T11:40:23.000Z,52.84
2023-04-12T11:41:27.000Z,52.44
2023-04-12T11:42:31.000Z,53.38
2023-04-12T11:43:35.000Z,52.19
2023-04-12T11:44:39.000Z,52.11
2023-04-12T11:45:43.000Z,51.88
2023-04-12T11:46:47.000Z,52.56
2023-04-12T11:47:51.000Z,52.14
2023-04-12T11:48:55.000Z,52.76
2023-04-12T11:49:59.000Z,52.54
2023-04-12T11:51:03.000Z,53.14
2023-04-12T11:52:07.000Z,52.56
2023-04-12T11:53:11.000Z,53.5
2023-04-12T11:54:15.000Z,53.09
2023-04-12T11:55:19.000Z,53.05
2023-04-12T11:56:24.000Z,53.65
2023-04-12T11:57:28.000Z,54.38
2023-04-12T11:58:32.000Z,55.1
2023-04-12T11:59:36.000Z,55.43
2023-04-12T12:00:40.000Z,55.12
2023-04-12T12:01:44.000Z,55.45
2023-04-12T12:02:48.000Z,55.55
2023-04-12T12:03:52.000Z,56.59
2023-04-12T12:04:56.000Z,55.78
2023-04-12T12:06:00.000Z,55.8
2023-04-12T12:07:03.000Z,57.5
2023-04-12T12:08:07.000Z,56.01
2023-04-12T12:09:11.000Z,57.33
2023-04-12T12:10:15.000Z,57.56
2023-04-12T12:11:19.000Z,57.53
2023-04-12T12:12:23.000Z,58.24
2023-04-12T12:13:27.000Z,58.04
2023-04-12T12:14:32.000Z,58.14
2023-04-12T12:15:36.000Z,58.95
2023-04-12T12:16:39.000Z,59.23
2023-04-12T12:17:44.000Z,58.54
2023-04-12T12:18:48.000Z,58.62
2023-04-12T12:19:51.000Z,58.54
2023-04-12T12:20:55.000Z,59.05
2023-04-12T12:21:59.000Z,60.47
2023-04-12T12:23:03.000Z,60.95
2023-04-12T12:24:07.000Z,62.48
2023-04-12T12:25:11.000Z,62.98
2023-04-12T12:26:15.000Z,63.49
2023-04-12T12:27:19.000Z,64.64
2023-04-12T12:28:23.000Z,64.46
2023-04-12T12:29:27.000Z,66.52
2023-04-12T12:30:31.000Z,66.42
2023-04-12T12:31:35.000Z,67.88
2023-04-12T12:32:39.000Z,68.11
2023-04-12T12:33:42.000Z,68.24
2023-04-12T12:34:52.000Z,69.46
2023-04-12T12:35:56.000Z,69.94
2023-04-12T12:37:00.000Z,69.53
2023-04-12T12:38:04.000Z,70.04
2023-04-12T12:39:08.000Z,70.65
2023-04-12T12:40:12.000Z,71.87
2023-04-12T12:41:16.000Z,70.86
2023-04-12T12:42:20.000Z,71.5
2023-04-12T12:43:24.000Z,72.11
2023-04-12T12:44:28.000Z,73.74
2023-04-12T12:45:32.000Z,74.04
2023-04-12T12:46:36.000Z,75.3
2023-04-12T12:47:40.000Z,73.67
2023-04-12T12:48:44.000Z,75.5
2023-04-12T12:49:48.000Z,74.52
2023-04-12T12:50:52.000Z,76.65
2023-04-12T12:51:56.000Z,75.74
2023-04-12T12:53:00.000Z,76.15
2023-04-12T12:54:04.000Z,75.91
2023-04-12T12:55:08.000Z,76.82
2023-04-12T12:56:12.000Z,76.82
2023-04-12T12:57:15.000Z,76.56
2023-04-12T12:58:19.000Z,77.81
2023-04-12T12:59:24.000Z,78.28
2023-04-12T13:00:28.000Z,78.02
2023-04-12T13:01:32.000Z,78.56
2023-04-12T13:02:36.000Z,79.54
2023-04-12T13:03:40.000Z,79.03
2023-04-12T13:04:44.000Z,78.46
2023-04-12T13:05:47.000Z,78.26
2023-04-12T13:06:51.000Z,78.56
2023-04-12T13:07:55.000Z,79.54
2023-04-12T13:08:59.000Z,78.93
2023-04-12T13:10:03.000Z,79.95
2023-04-12T13:11:07.000Z,79.2
2023-04-12T13:12:11.000Z,78.49
2023-04-12T13:13:15.000Z,78.49
2023-04-12T13:14:20.000Z,77.94
2023-04-12T13:15:24.000Z,78.28
2023-04-12T13:16:28.000Z,78.12
2023-04-12T13:17:32.000Z,79.54
2023-04-12T13:18:36.000Z,79.75
2023-04-12T13:19:40.000Z,79.14
2023-04-12T13:20:44.000Z,78.49
2023-04-12T13:21:48.000Z,78.32
2023-04-12T13:22:52.000Z,78.83
2023-04-12T13:23:56.000Z,79.14
2023-04-12T13:25:00.000Z,79.27
2023-04-12T13:26:04.000Z,80.02
2023-04-12T13:27:08.000Z,80.54
2023-04-12T13:28:12.000Z,81.15
2023-04-12T13:29:16.000Z,81.25
2023-04-12T13:30:20.000Z,81.56
2023-04-12T13:31:24.000Z,80.84
2023-04-12T13:32:28.000Z,81.35
2023-04-12T13:33:32.000Z,81.93
2023-04-12T13:34:36.000Z,82.54
2023-04-12T13:35:40.000Z,82.03
2023-04-12T13:36:44.000Z,82.64
2023-04-12T13:37:48.000Z,81.99
2023-04-12T13:38:52.000Z,81.79
2023-04-12T13:39:56.000Z,81.68
2023-04-12T13:41:01.000Z,81.38
2023-04-12T13:42:05.000Z,80.77
2023-04-12T13:43:09.000Z,80.8
2023-04-12T13:44:13.000Z,81.35
2023-04-12T13:45:17.000Z,82.37
2023-04-12T13:46:21.000Z,82.21
2023-04-12T13:47:25.000Z,81.8
2023-04-12T13:48:29.000Z,82.21